createdAt,value
2022-08-08T00:00:52.386Z,25.24
2022-08-08T00:02:31.020Z,25.13
2022-08-08T00:05:09.608Z,25.24
2022-08-08T00:08:08.561Z,25.22
2022-08-08T00:10:52.589Z,25.27
2022-08-08T00:14:15.610Z,25.30
2022-08-08T00:16:43.757Z,25.31
2022-08-08T00:19:16.705Z,25.26
2022-08-08T00:22:11.864Z,25.26
2022-08-08T00:24:46.871Z,25.25
2022-08-08T00:27:17.491Z,25.05
2022-08-08T00:29:58.345Z,25.08
2022-08-08T00:32:52.119Z,25.01
2022-08-08T00:35:21.960Z,24.90
2022-08-08T00:38:32.393Z,24.91
2022-08-08T00:41:55.295Z,24.70
2022-08-08T00:44:36.671Z,24.65
2022-08-08T00:47:36.788Z,24.61
2022-08-08T00:50:17.866Z,24.46
2022-08-08T00:53:15.976Z,24.53
2022-08-08T00:56:11.171Z,24.55
2022-08-08T00:59:02.656Z,24.52
2022-08-08T01:01:44.361Z,24.54
2022-08-08T01:04:44.232Z,24.55
2022-08-08T01:07:55.280Z,24.55
2022-08-08T01:11:08.047Z,24.65
2022-08-08T01:14:16.293Z,24.64
2022-08-08T01:16:58.834Z,24.46
2022-08-08T01:20:04.754Z,24.36
2022-08-08T01:22:48.910Z,24.33
2022-08-08T01:25:40.307Z,24.37
2022-08-08T01:28:38.258Z,24.48
2022-08-08T01:32:13.423Z,24.37
2022-08-08T01:34:49.949Z,24.51
2022-08-08T01:37:57.534Z,24.33
2022-08-08T01:41:06.067Z,24.18
2022-08-08T01:43:58.716Z,24.20
2022-08-08T01:46:52.176Z,24.21
2022-08-08T01:49:51.699Z,24.14
2022-08-08T01:53:55.016Z,24.22
2022-08-08T01:56:28.865Z,24.09
2022-08-08T01:58:58.053Z,23.97
2022-08-08T02:02:07.328Z,23.85
2022-08-08T02:05:23.340Z,23.79
2022-08-08T02:08:12.472Z,23.71
2022-08-08T02:11:23.074Z,23.70
2022-08-08T02:14:26.841Z,23.67
2022-08-08T02:17:36.478Z,23.72
2022-08-08T02:21:01.006Z,23.64
2022-08-08T02:23:32.176Z,23.84
2022-08-08T02:26:40.030Z,23.82
2022-08-08T02:29:53.137Z,23.80
2022-08-08T02:32:38.197Z,23.81
2022-08-08T02:35:29.946Z,23.72
2022-08-08T02:38:29.050Z,23.80
2022-08-08T02:41:57.910Z,23.88
2022-08-08T02:44:44.885Z,23.88
2022-08-08T02:47:57.212Z,23.88
2022-08-08T02:51:30.427Z,23.97
2022-08-08T02:54:43.403Z,24.01
2022-08-08T02:57:51.382Z,24.05
2022-08-08T03:00:34.150Z,24.13
2022-08-08T03:05:00.554Z,24.13
2022-08-08T03:06:44.965Z,24.03
2022-08-08T03:10:31.658Z,24.03
2022-08-08T03:15:57.613Z,24.10
2022-08-08T03:16:37.547Z,24.08
2022-08-08T03:19:38.439Z,24.05
2022-08-08T03:22:38.395Z,24.00
2022-08-08T03:24:58.984Z,23.93
2022-08-08T03:27:30.461Z,24.01
2022-08-08T03:30:09.152Z,23.93
2022-08-08T03:33:07.503Z,23.88
2022-08-08T03:35:54.414Z,23.88
2022-08-08T03:38:56.873Z,23.78
2022-08-08T03:42:13.035Z,23.97
2022-08-08T03:43:59.693Z,24.03
2022-08-08T03:46:32.525Z,23.97
2022-08-08T03:49:54.975Z,23.97
2022-08-08T03:51:55.804Z,23.99
2022-08-08T03:54:41.499Z,23.95
2022-08-08T03:58:32.863Z,23.89
2022-08-08T04:00:18.193Z,23.96
2022-08-08T04:03:01.839Z,23.93
2022-08-08T04:05:36.675Z,23.95
2022-08-08T04:08:33.347Z,23.95
2022-08-08T04:11:17.373Z,23.91
2022-08-08T04:14:04.114Z,23.86
2022-08-08T04:16:38.961Z,23.84
2022-08-08T04:19:22.950Z,23.85
2022-08-08T04:21:52.113Z,23.78
2022-08-08T04:24:29.426Z,23.75
2022-08-08T04:27:00.810Z,23.76
2022-08-08T04:29:33.425Z,23.77
2022-08-08T04:32:07.947Z,23.75
2022-08-08T04:34:55.320Z,23.85
2022-08-08T04:37:32.155Z,23.82
2022-08-08T04:40:10.588Z,23.84
2022-08-08T04:42:56.789Z,23.83
2022-08-08T04:45:36.430Z,23.82
2022-08-08T04:48:05.756Z,23.92
2022-08-08T04:50:45.916Z,23.97
2022-08-08T04:54:27.603Z,23.89
2022-08-08T04:56:09.702Z,23.78
2022-08-08T04:58:37.107Z,23.87
2022-08-08T05:01:10.664Z,23.71
2022-08-08T05:04:09.451Z,23.77
2022-08-08T05:06:33.072Z,23.91
2022-08-08T05:09:06.037Z,23.82
2022-08-08T05:11:39.561Z,23.88
2022-08-08T05:14:12.564Z,23.98
2022-08-08T05:16:50.967Z,24.01
2022-08-08T05:20:09.146Z,23.99
2022-08-08T05:22:13.227Z,23.98
2022-08-08T05:24:48.604Z,23.99
2022-08-08T05:27:20.560Z,24.00
2022-08-08T05:29:52.087Z,24.08
2022-08-08T05:32:27.734Z,24.18
2022-08-08T05:35:04.675Z,24.19
2022-08-08T05:37:54.084Z,24.11
2022-08-08T05:40:48.920Z,24.09
2022-08-08T05:44:02.272Z,24.07
2022-08-08T05:46:21.216Z,23.87
2022-08-08T05:48:54.418Z,23.84
2022-08-08T05:51:25.999Z,23.77
2022-08-08T05:54:27.387Z,23.72
2022-08-08T05:56:47.384Z,23.54
2022-08-08T05:59:58.711Z,23.42
2022-08-08T06:02:43.711Z,23.49
2022-08-08T06:05:33.910Z,23.39
2022-08-08T06:08:10.351Z,23.45
2022-08-08T06:10:56.720Z,23.41
2022-08-08T06:13:30.003Z,23.52
2022-08-08T06:16:06.591Z,23.66
2022-08-08T06:19:00.669Z,23.77
2022-08-08T06:21:48.490Z,23.58
2022-08-08T06:24:30.676Z,23.56
2022-08-08T06:27:10.489Z,23.68
2022-08-08T06:30:11.787Z,23.78
2022-08-08T06:32:56.569Z,23.85
2022-08-08T06:36:03.951Z,23.92
2022-08-08T06:38:20.058Z,23.75
2022-08-08T06:40:56.827Z,23.90
2022-08-08T06:43:34.709Z,24.16
2022-08-08T06:46:08.666Z,24.09
2022-08-08T06:48:38.441Z,24.05
2022-08-08T06:51:08.548Z,23.90
2022-08-08T06:53:39.226Z,24.04
2022-08-08T06:56:10.426Z,24.16
2022-08-08T06:58:39.852Z,24.27
2022-08-08T07:02:17.902Z,24.21
2022-08-08T07:04:35.931Z,24.18
2022-08-08T07:07:12.133Z,24.24
2022-08-08T07:09:59.535Z,24.21
2022-08-08T07:13:03.387Z,24.31
2022-08-08T07:16:04.911Z,24.15
2022-08-08T07:19:07.193Z,24.10
2022-08-08T07:22:05.110Z,24.13
2022-08-08T07:24:55.309Z,24.09
2022-08-08T07:27:35.044Z,24.11
2022-08-08T07:30:19.727Z,24.37
2022-08-08T07:32:55.437Z,24.57
2022-08-08T07:35:31.223Z,24.60
2022-08-08T07:38:09.925Z,24.71
2022-08-08T07:40:47.521Z,24.76
2022-08-08T07:43:36.631Z,24.79
2022-08-08T07:46:23.943Z,24.95
2022-08-08T07:49:02.866Z,25.08
2022-08-08T07:51:52.860Z,25.07
2022-08-08T07:54:34.998Z,25.14
2022-08-08T07:57:25.594Z,25.23
2022-08-08T08:00:16.000Z,25.30
2022-08-08T08:03:19.670Z,25.56
2022-08-08T08:05:59.568Z,25.64
2022-08-08T08:08:50.287Z,25.83
2022-08-08T08:11:33.556Z,25.98
2022-08-08T08:14:10.788Z,26.21
2022-08-08T08:16:50.388Z,26.41
2022-08-08T08:19:23.131Z,26.58
2022-08-08T08:21:57.621Z,26.53
2022-08-08T08:24:35.331Z,26.65
2022-08-08T08:27:05.285Z,26.65
2022-08-08T08:29:40.360Z,26.75
2022-08-08T08:32:11.485Z,26.84
2022-08-08T08:34:43.072Z,26.99
2022-08-08T08:37:12.197Z,27.03
2022-08-08T08:40:01.196Z,27.21
2022-08-08T08:42:37.517Z,27.07
2022-08-08T08:45:23.305Z,27.13
2022-08-08T08:47:58.680Z,27.02
2022-08-08T08:50:35.589Z,26.86
2022-08-08T08:53:27.953Z,26.89
2022-08-08T08:56:07.884Z,27.09
2022-08-08T08:58:43.006Z,27.01
2022-08-08T09:01:19.850Z,26.78
2022-08-08T09:03:51.459Z,26.51
2022-08-08T09:06:37.838Z,26.67
2022-08-08T09:09:35.578Z,26.81
2022-08-08T09:12:12.436Z,26.62
2022-08-08T09:14:46.940Z,26.65
2022-08-08T09:17:26.796Z,26.40
2022-08-08T09:22:02.430Z,26.38
2022-08-08T09:22:49.820Z,26.48
2022-08-08T09:25:22.738Z,26.61
2022-08-08T09:28:03.748Z,26.59
2022-08-08T09:30:34.358Z,26.31
2022-08-08T09:33:55.686Z,26.39
2022-08-08T09:35:52.757Z,26.58
2022-08-08T09:38:52.955Z,26.17
2022-08-08T09:42:14.516Z,26.22
2022-08-08T09:44:46.341Z,26.43
2022-08-08T09:47:25.495Z,26.49
2022-08-08T09:50:16.167Z,26.74
2022-08-08T09:52:57.554Z,26.93
2022-08-08T09:55:31.680Z,27.25
2022-08-08T09:58:26.092Z,27.58
2022-08-08T10:01:03.552Z,27.77
2022-08-08T10:03:56.149Z,28.07
2022-08-08T10:06:29.507Z,28.22
2022-08-08T10:08:57.576Z,28.34
2022-08-08T10:12:27.354Z,28.45
2022-08-08T10:14:34.908Z,28.47
2022-08-08T10:16:59.702Z,28.77
2022-08-08T10:19:57.781Z,28.45
2022-08-08T10:22:27.418Z,28.33
2022-08-08T10:25:02.439Z,28.28
2022-08-08T10:27:34.534Z,28.41
2022-08-08T10:30:05.594Z,28.79
2022-08-08T10:32:37.457Z,28.81
2022-08-08T10:35:20.174Z,28.86
2022-08-08T10:38:08.613Z,28.84
2022-08-08T10:40:38.641Z,28.86
2022-08-08T10:43:07.144Z,28.99
2022-08-08T10:45:56.222Z,29.62
2022-08-08T10:48:57.284Z,30.31
2022-08-08T10:51:26.085Z,30.79
2022-08-08T10:53:59.787Z,30.83
2022-08-08T10:56:36.386Z,30.94
2022-08-08T10:59:12.172Z,30.76
2022-08-08T11:01:49.364Z,30.64
2022-08-08T11:04:38.647Z,30.55
2022-08-08T11:07:07.269Z,31.06
2022-08-08T11:09:35.223Z,31.07
2022-08-08T11:12:13.170Z,30.82
2022-08-08T11:14:57.620Z,30.74
2022-08-08T11:18:00.687Z,30.82
2022-08-08T11:20:27.428Z,30.99
2022-08-08T11:22:59.938Z,30.95
2022-08-08T11:25:53.000Z,30.60
2022-08-08T11:28:29.823Z,30.98
2022-08-08T11:31:04.070Z,31.21
2022-08-08T11:33:51.155Z,31.60
2022-08-08T11:36:20.985Z,31.70
2022-08-08T11:38:53.999Z,31.54
2022-08-08T11:41:33.491Z,31.75
2022-08-08T11:44:02.233Z,32.01
2022-08-08T11:46:32.642Z,32.16
2022-08-08T11:49:14.000Z,31.85
2022-08-08T11:51:49.892Z,31.87
2022-08-08T11:54:34.327Z,31.98
2022-08-08T11:57:14.000Z,32.01
2022-08-08T12:00:01.827Z,32.26
2022-08-08T12:02:52.222Z,32.41
2022-08-08T12:05:22.864Z,32.61
2022-08-08T12:07:55.809Z,32.90
2022-08-08T12:10:28.419Z,33.07
2022-08-08T12:13:07.419Z,33.38
2022-08-08T12:15:42.658Z,33.22
2022-08-08T12:18:26.583Z,32.75
2022-08-08T12:20:58.798Z,32.93
2022-08-08T12:23:43.309Z,32.96
2022-08-08T12:26:41.938Z,32.67
2022-08-08T12:29:45.558Z,32.78
2022-08-08T12:32:19.972Z,32.54
2022-08-08T12:35:01.456Z,32.45
2022-08-08T12:37:43.197Z,32.53
2022-08-08T12:40:23.728Z,32.81
2022-08-08T12:42:53.450Z,33.34
2022-08-08T12:45:57.854Z,33.18
2022-08-08T12:48:37.466Z,32.92
2022-08-08T12:51:10.846Z,32.80
2022-08-08T12:53:59.232Z,32.74
2022-08-08T12:56:34.362Z,32.69
2022-08-08T12:59:02.017Z,32.57
2022-08-08T13:01:37.837Z,32.73
2022-08-08T13:04:18.827Z,32.93
2022-08-08T13:07:04.987Z,32.40
2022-08-08T13:09:57.552Z,32.08
2022-08-08T13:12:35.470Z,31.92
2022-08-08T13:15:06.339Z,31.71
2022-08-08T13:18:09.078Z,32.17
2022-08-08T13:20:27.294Z,32.68
2022-08-08T13:23:29.930Z,32.82
2022-08-08T13:25:50.969Z,32.67
2022-08-08T13:28:32.477Z,32.53
2022-08-08T13:31:04.550Z,32.48
2022-08-08T13:33:42.351Z,32.27
2022-08-08T13:36:11.225Z,32.20
2022-08-08T13:38:39.792Z,31.69
2022-08-08T13:41:16.457Z,31.53
2022-08-08T13:43:49.831Z,30.95
2022-08-08T13:46:28.811Z,31.06
2022-08-08T13:50:33.746Z,31.07
2022-08-08T13:52:04.842Z,31.31
2022-08-08T13:54:34.689Z,31.36
2022-08-08T13:57:12.315Z,31.23
2022-08-08T13:59:48.371Z,31.38
2022-08-08T14:02:21.353Z,31.30
2022-08-08T14:04:55.774Z,31.30
2022-08-08T14:07:30.563Z,31.43
2022-08-08T14:10:10.054Z,31.32
2022-08-08T14:12:43.770Z,31.21
2022-08-08T14:15:39.753Z,30.99
2022-08-08T14:18:36.001Z,30.76
2022-08-08T14:21:08.197Z,30.74
2022-08-08T14:24:04.143Z,30.65
2022-08-08T14:26:38.425Z,30.69
2022-08-08T14:29:05.806Z,30.56
2022-08-08T14:32:09.312Z,30.57
2022-08-08T14:34:37.064Z,30.32
2022-08-08T14:37:08.204Z,30.41
2022-08-08T14:39:49.319Z,30.34
2022-08-08T14:42:54.687Z,30.34
2022-08-08T14:45:47.067Z,30.26
2022-08-08T14:48:27.595Z,29.95
2022-08-08T14:51:07.433Z,30.17
2022-08-08T14:53:37.316Z,30.37
2022-08-08T14:56:24.755Z,30.19
2022-08-08T14:58:54.585Z,29.99
2022-08-08T15:01:41.358Z,29.93
2022-08-08T15:04:11.093Z,29.62
2022-08-08T15:06:39.110Z,29.59
2022-08-08T15:09:09.334Z,29.59
2022-08-08T15:11:43.394Z,29.29
2022-08-08T15:14:24.982Z,29.18
2022-08-08T15:16:53.548Z,29.14
2022-08-08T15:19:23.651Z,29.15
2022-08-08T15:21:50.976Z,29.08
2022-08-08T15:24:17.941Z,29.10
2022-08-08T15:26:53.115Z,28.94
2022-08-08T15:29:22.729Z,28.83
2022-08-08T15:32:17.243Z,29.06
2022-08-08T15:34:38.923Z,29.05
2022-08-08T15:37:07.629Z,28.84
2022-08-08T15:39:38.206Z,28.76
2022-08-08T15:42:13.394Z,28.68
2022-08-08T15:44:51.740Z,28.62
2022-08-08T15:47:22.703Z,28.60
2022-08-08T15:49:51.019Z,28.55
2022-08-08T15:52:22.102Z,28.44
2022-08-08T15:54:51.827Z,28.47
2022-08-08T15:57:21.882Z,28.41
2022-08-08T16:00:06.392Z,28.28
2022-08-08T16:02:50.427Z,28.08
2022-08-08T16:05:21.393Z,27.92
2022-08-08T16:07:52.712Z,27.77
2022-08-08T16:13:04.149Z,27.62
2022-08-08T16:13:33.576Z,27.57
2022-08-08T16:16:13.286Z,27.55
2022-08-08T16:18:56.957Z,27.56
2022-08-08T16:21:31.954Z,27.60
2022-08-08T16:24:03.156Z,27.67
2022-08-08T16:26:35.916Z,27.62
2022-08-08T16:29:16.201Z,27.64
2022-08-08T16:31:48.929Z,27.45
2022-08-08T16:34:19.953Z,27.44
2022-08-08T16:36:50.382Z,27.44
2022-08-08T16:39:49.118Z,27.55
2022-08-08T16:42:06.987Z,27.59
2022-08-08T16:44:54.621Z,27.45
2022-08-08T16:47:40.655Z,27.28
2022-08-08T16:50:14.756Z,27.40
2022-08-08T16:55:23.345Z,27.38
2022-08-08T16:55:55.139Z,27.43
2022-08-08T16:58:26.602Z,27.42
2022-08-08T17:00:57.883Z,27.31
2022-08-08T17:03:58.646Z,27.25
2022-08-08T17:06:37.339Z,27.15
2022-08-08T17:09:02.510Z,27.15
2022-08-08T17:11:38.918Z,27.14
2022-08-08T17:14:18.641Z,27.20
2022-08-08T17:16:57.099Z,27.14
2022-08-08T17:19:25.987Z,27.10
2022-08-08T17:21:54.480Z,27.10
2022-08-08T17:24:27.683Z,27.18
2022-08-08T17:26:58.066Z,27.12
2022-08-08T17:29:28.172Z,27.11
2022-08-08T17:32:02.819Z,26.90
2022-08-08T17:34:49.365Z,26.89
2022-08-08T17:37:19.969Z,26.99
2022-08-08T17:40:05.654Z,27.07
2022-08-08T17:42:34.567Z,26.98
2022-08-08T17:45:01.647Z,27.01
2022-08-08T17:47:40.670Z,26.96
2022-08-08T17:50:09.792Z,27.00
2022-08-08T17:52:38.434Z,26.75
2022-08-08T17:56:07.209Z,26.75
2022-08-08T17:58:01.925Z,26.62
2022-08-08T18:00:30.862Z,26.62
2022-08-08T18:03:08.595Z,26.51
2022-08-08T18:05:49.372Z,26.41
2022-08-08T18:08:38.200Z,26.23
2022-08-08T18:11:15.798Z,26.16
2022-08-08T18:13:45.262Z,26.27
2022-08-08T18:16:12.920Z,26.32
2022-08-08T18:18:53.653Z,26.31
2022-08-08T18:21:34.430Z,26.29
2022-08-08T18:24:03.044Z,26.35
2022-08-08T18:26:30.404Z,26.28
2022-08-08T18:28:58.382Z,26.18
2022-08-08T18:31:28.380Z,26.19
2022-08-08T18:34:12.452Z,26.31
2022-08-08T18:36:44.454Z,26.31
2022-08-08T18:39:16.458Z,26.31
2022-08-08T18:42:01.073Z,26.28
2022-08-08T18:44:35.986Z,26.21
2022-08-08T18:47:04.261Z,26.23
2022-08-08T18:49:41.082Z,26.19
2022-08-08T18:52:22.743Z,26.23
2022-08-08T18:54:59.297Z,26.12
2022-08-08T18:57:31.478Z,26.16
2022-08-08T19:00:01.341Z,26.15
2022-08-08T19:02:29.863Z,26.05
2022-08-08T19:04:57.329Z,26.16
2022-08-08T19:07:29.436Z,26.18
2022-08-08T19:10:14.448Z,26.15
2022-08-08T19:12:44.631Z,26.09
2022-08-08T19:15:23.670Z,26.00
2022-08-08T19:18:32.159Z,25.96
2022-08-08T19:20:43.091Z,25.90
2022-08-08T19:23:13.861Z,25.84
2022-08-08T19:26:26.999Z,25.85
2022-08-08T19:28:29.167Z,25.84
2022-08-08T19:31:04.262Z,25.77
2022-08-08T19:33:52.212Z,25.78
2022-08-08T19:36:27.780Z,25.81
2022-08-08T19:38:57.047Z,25.76
2022-08-08T19:41:29.296Z,25.80
2022-08-08T19:44:03.849Z,25.66
2022-08-08T19:46:39.798Z,25.69
2022-08-08T19:49:07.713Z,25.61
2022-08-08T19:51:39.605Z,25.56
2022-08-08T19:54:11.204Z,25.58
2022-08-08T19:56:40.057Z,25.57
2022-08-08T19:59:13.043Z,25.55
2022-08-08T20:02:02.245Z,25.43
2022-08-08T20:04:29.530Z,25.47
2022-08-08T20:06:57.937Z,25.52
2022-08-08T20:09:32.672Z,25.56
2022-08-08T20:12:11.728Z,25.48
2022-08-08T20:14:41.883Z,25.37
2022-08-08T20:17:09.592Z,25.34
2022-08-08T20:19:43.373Z,25.38
2022-08-08T20:22:20.695Z,25.37
2022-08-08T20:24:53.882Z,25.51
2022-08-08T20:27:21.371Z,25.59
2022-08-08T20:29:55.860Z,25.55
2022-08-08T20:32:28.515Z,25.39
2022-08-08T20:35:00.775Z,25.29
2022-08-08T20:37:46.765Z,25.30
2022-08-08T20:40:33.494Z,25.37
2022-08-08T20:43:16.139Z,25.15
2022-08-08T20:45:58.239Z,24.96
2022-08-08T20:48:30.933Z,25.08
2022-08-08T20:50:58.578Z,24.95
2022-08-08T20:54:01.039Z,24.68
2022-08-08T20:56:14.087Z,24.73
2022-08-08T20:58:48.024Z,24.79
2022-08-08T21:01:19.783Z,24.75
2022-08-08T21:03:59.914Z,24.85
2022-08-08T21:06:53.084Z,24.88
2022-08-08T21:09:19.230Z,24.75
2022-08-08T21:11:52.035Z,24.67
2022-08-08T21:14:30.308Z,24.60
2022-08-08T21:17:01.536Z,24.68
2022-08-08T21:19:44.015Z,24.70
2022-08-08T21:22:12.998Z,24.28
2022-08-08T21:24:41.765Z,24.15
2022-08-08T21:28:06.124Z,24.37
2022-08-08T21:30:10.771Z,24.43
2022-08-08T21:32:44.414Z,24.31
2022-08-08T21:36:16.497Z,24.23
2022-08-08T21:38:04.097Z,24.07
2022-08-08T21:40:36.132Z,23.91
2022-08-08T21:43:03.576Z,23.92
2022-08-08T21:47:59.339Z,23.95
2022-08-08T21:48:28.976Z,23.81
2022-08-08T21:51:09.978Z,23.76
2022-08-08T21:54:27.408Z,23.69
2022-08-08T21:56:32.341Z,23.72
2022-08-08T21:59:04.103Z,23.51
2022-08-08T22:01:41.086Z,23.55
2022-08-08T22:04:11.377Z,23.37
2022-08-08T22:06:40.767Z,23.45
2022-08-08T22:09:09.785Z,23.53
2022-08-08T22:11:59.344Z,23.44
2022-08-08T22:14:26.726Z,23.48
2022-08-08T22:16:54.962Z,23.34
2022-08-08T22:19:24.055Z,23.45
2022-08-08T22:21:52.992Z,23.35
2022-08-08T22:24:28.254Z,23.47
2022-08-08T22:27:02.683Z,23.42
2022-08-08T22:30:01.401Z,23.49
2022-08-08T22:32:19.148Z,23.55
2022-08-08T22:34:50.560Z,23.52
2022-08-08T22:37:48.924Z,23.33
2022-08-08T22:40:16.442Z,23.33
2022-08-08T22:42:47.212Z,23.31
2022-08-08T22:45:15.780Z,23.36
2022-08-08T22:47:49.514Z,23.36
2022-08-08T22:50:25.434Z,23.18
2022-08-08T22:54:30.000Z,23.17
2022-08-08T22:55:57.609Z,23.10
2022-08-08T22:58:28.836Z,23.04
2022-08-08T23:01:00.069Z,23.10
2022-08-08T23:03:34.407Z,23.11
2022-08-08T23:06:16.777Z,23.15
2022-08-08T23:08:55.179Z,23.22
2022-08-08T23:11:57.978Z,23.19
2022-08-08T23:14:12.929Z,23.04
2022-08-08T23:16:45.666Z,22.93
2022-08-08T23:19:16.713Z,23.01
2022-08-08T23:21:45.698Z,23.01
2022-08-08T23:24:23.032Z,23.01
2022-08-08T23:26:55.374Z,23.10
2022-08-08T23:29:25.626Z,22.99
2022-08-08T23:31:55.594Z,23.01
2022-08-08T23:34:23.318Z,23.00
2022-08-08T23:36:57.806Z,22.99
2022-08-08T23:39:31.879Z,23.01
2022-08-08T23:42:01.633Z,22.88
2022-08-08T23:44:29.345Z,22.92
2022-08-08T23:49:03.021Z,22.96
2022-08-08T23:50:03.268Z,22.88
2022-08-08T23:52:33.965Z,22.94
2022-08-08T23:55:14.669Z,22.60
2022-08-08T23:57:52.542Z,22.56
